Time;durP1;ratioP1;P1;durP2;ratioP2;P2;SDS_P1;SDS_P2;PMS_P1;PMS_P2;Temp;Humidity;BMP_temperature;BMP_pressure;BME280_temperature;BME280_humidity;BME280_pressure;Samples;Min_cycle;Max_cycle;Signal;HPM_P1;HPM_P2
2022/10/23 00:01:22;;;;;;;15.18;8.93;;;10.30;99.90;;;;;;5049795;28;20312;-78
2022/10/23 00:03:51;;;;;;;12.65;8.43;;;10.20;99.90;;;;;;5050234;28;20044;-78
2022/10/23 00:06:17;;;;;;;9.77;6.65;;;10.20;99.90;;;;;;5050189;28;20083;-78
2022/10/23 00:08:45;;;;;;;7.82;4.90;;;10.10;99.90;;;;;;5049799;28;20041;-78
2022/10/23 00:11:15;;;;;;;5.88;3.78;;;10.10;99.90;;;;;;5049548;28;20041;-78
2022/10/23 00:13:40;;;;;;;5.50;3.70;;;10.10;99.90;;;;;;5049600;28;20094;-78
2022/10/23 00:16:07;;;;;;;5.53;3.28;;;10.10;99.90;;;;;;5050044;28;20041;-78
2022/10/23 00:18:33;;;;;;;4.15;3.33;;;10.00;99.90;;;;;;5049919;28;20060;-78
2022/10/23 00:20:58;;;;;;;4.32;3.55;;;10.00;99.90;;;;;;5033093;28;20029;-78
2022/10/23 00:23:24;;;;;;;4.60;3.05;;;10.00;99.90;;;;;;5049937;28;20064;-78
2022/10/23 00:25:50;;;;;;;4.18;3.17;;;10.00;99.90;;;;;;5049490;28;20066;-78
2022/10/23 00:28:15;;;;;;;6.10;3.83;;;9.90;99.90;;;;;;5050015;28;20494;-79
2022/10/23 00:30:41;;;;;;;5.22;3.72;;;9.90;99.90;;;;;;5049745;28;20123;-78
2022/10/23 00:33:06;;;;;;;5.60;4.00;;;9.90;99.90;;;;;;5053343;28;20124;-78
2022/10/23 00:35:32;;;;;;;4.03;3.50;;;9.90;99.90;;;;;;5053418;28;20040;-78
2022/10/23 00:37:57;;;;;;;5.43;3.53;;;9.90;99.90;;;;;;5053125;28;20036;-78
2022/10/23 00:40:23;;;;;;;3.83;3.35;;;9.80;99.90;;;;;;5052985;28;20111;-78
2022/10/23 00:42:48;;;;;;;3.95;3.25;;;9.80;99.90;;;;;;5053092;28;20536;-78
2022/10/23 00:45:26;;;;;;;4.25;3.53;;;9.80;99.90;;;;;;5036468;28;20090;-79
2022/10/23 00:47:54;;;;;;;7.65;4.28;;;9.70;99.90;;;;;;5052966;28;20124;-79
2022/10/23 00:50:22;;;;;;;6.40;4.43;;;9.70;99.90;;;;;;5036408;28;20052;-78
2022/10/23 00:52:50;;;;;;;7.93;4.97;;;9.70;99.90;;;;;;5052524;28;20041;-78
2022/10/23 00:55:17;;;;;;;9.77;4.88;;;9.70;99.90;;;;;;5053030;28;20040;-78
2022/10/23 00:57:45;;;;;;;7.88;5.40;;;9.70;99.90;;;;;;5052715;28;20037;-79
2022/10/23 01:00:15;;;;;;;11.07;5.20;;;9.70;99.90;;;;;;5052750;28;20041;-79
2022/10/23 01:02:40;;;;;;;10.75;6.70;;;9.70;99.90;;;;;;5052671;28;20119;-79
2022/10/23 01:05:07;;;;;;;16.85;8.40;;;9.70;99.90;;;;;;5052531;28;20120;-78
2022/10/23 01:07:55;;;;;;;17.25;8.70;;;9.70;99.90;;;;;;5052588;28;20048;-79
2022/10/23 01:10:38;;;;;;;16.60;8.60;;;9.80;99.90;;;;;;5052574;28;20043;-78
2022/10/23 01:13:22;;;;;;;15.57;8.18;;;9.80;99.90;;;;;;5052513;28;20045;-79
2022/10/23 01:15:55;;;;;;;17.65;9.50;;;9.90;99.90;;;;;;5038653;28;20083;-79
2022/10/23 01:18:30;;;;;;;17.97;10.30;;;9.90;99.90;;;;;;5052928;28;20106;-79
2022/10/23 01:21:15;;;;;;;17.33;9.88;;;9.90;99.90;;;;;;5052555;28;20414;-79
2022/10/23 01:24:10;;;;;;;17.05;9.80;;;9.90;99.90;;;;;;5052169;28;20522;-79
2022/10/23 01:26:51;;;;;;;15.75;10.73;;;9.90;99.90;;;;;;5052419;28;20120;-79
2022/10/23 01:29:40;;;;;;;20.70;10.40;;;9.90;99.90;;;;;;5035610;28;20064;-79
2022/10/23 01:32:23;;;;;;;18.25;12.02;;;10.00;99.90;;;;;;5052041;28;20079;-79
2022/10/23 01:34:55;;;;;;;16.63;12.18;;;10.00;99.90;;;;;;5051984;28;20041;-79
2022/10/23 01:37:27;;;;;;;18.60;11.82;;;10.00;99.90;;;;;;5035517;28;20074;-79
2022/10/23 01:39:57;;;;;;;21.77;12.05;;;10.10;99.90;;;;;;5052217;28;20132;-79
2022/10/23 01:42:30;;;;;;;17.52;11.32;;;10.10;99.90;;;;;;5034840;28;20041;-79
2022/10/23 01:45:05;;;;;;;16.75;10.98;;;10.10;99.90;;;;;;5051944;28;20044;-79
2022/10/23 01:47:34;;;;;;;20.23;12.65;;;10.10;99.90;;;;;;5052128;28;20498;-80
2022/10/23 01:50:02;;;;;;;16.77;11.73;;;10.00;99.90;;;;;;5052420;28;20421;-79
2022/10/23 01:52:27;;;;;;;21.15;11.95;;;10.10;99.90;;;;;;5052324;28;20464;-79
2022/10/23 01:54:56;;;;;;;19.45;11.70;;;10.10;99.90;;;;;;5035548;28;20045;-80
2022/10/23 01:57:24;;;;;;;21.42;11.60;;;10.00;99.90;;;;;;5052108;28;20098;-79
2022/10/23 02:00:00;;;;;;;19.00;11.98;;;10.10;99.90;;;;;;5051892;28;20044;-79
2022/10/23 02:02:27;;;;;;;22.80;12.57;;;10.00;99.90;;;;;;5051818;28;20032;-79
2022/10/23 02:05:02;;;;;;;16.67;12.07;;;10.10;99.90;;;;;;5051963;28;20041;-79
2022/10/23 02:07:28;;;;;;;19.65;11.98;;;10.10;99.90;;;;;;5051922;28;20048;-79
2022/10/23 02:09:54;;;;;;;18.00;11.85;;;10.00;99.90;;;;;;5051933;28;20045;-79
2022/10/23 02:12:31;;;;;;;14.32;11.25;;;10.00;99.90;;;;;;5051571;28;20040;-79
2022/10/23 02:15:11;;;;;;;17.00;11.80;;;10.00;99.90;;;;;;5035289;28;20049;-79
2022/10/23 02:18:06;;;;;;;15.68;11.57;;;10.00;99.90;;;;;;5052057;28;20068;-79
2022/10/23 02:20:36;;;;;;;18.13;12.35;;;10.00;99.90;;;;;;5051501;28;20048;-79
2022/10/23 02:23:23;;;;;;;18.50;11.65;;;10.00;99.90;;;;;;5052064;28;20406;-79
2022/10/23 02:26:06;;;;;;;16.33;11.27;;;10.00;99.90;;;;;;5051786;28;20041;-79
2022/10/23 02:28:47;;;;;;;13.60;10.27;;;10.00;99.90;;;;;;5051748;28;20522;-79
2022/10/23 02:31:15;;;;;;;14.93;10.00;;;10.00;99.90;;;;;;5034759;28;20033;-79
2022/10/23 02:33:42;;;;;;;14.93;8.88;;;9.90;99.90;;;;;;5051983;28;20044;-79
2022/10/23 02:36:08;;;;;;;30.52;8.30;;;9.90;99.90;;;;;;5034988;28;20403;-79
2022/10/23 02:38:36;;;;;;;26.02;7.22;;;9.80;99.90;;;;;;5051346;28;20048;-79
2022/10/23 02:41:23;;;;;;;38.63;6.25;;;9.70;99.90;;;;;;5050766;28;20074;-78
2022/10/23 02:43:49;;;;;;;6.90;5.00;;;9.60;99.90;;;;;;5051377;28;20062;-79
2022/10/23 02:46:39;;;;;;;6.00;4.85;;;9.60;99.90;;;;;;5050791;28;20033;-78
2022/10/23 02:49:19;;;;;;;6.60;5.10;;;9.60;99.90;;;;;;5051422;28;20041;-80
2022/10/23 02:51:53;;;;;;;6.40;4.90;;;9.50;99.90;;;;;;5050927;28;20083;-80
2022/10/23 02:54:30;;;;;;;;;;;9.50;99.90;;;;;;5051528;28;20567;-79
2022/10/23 02:57:04;;;;;;;5.65;4.45;;;9.50;99.90;;;;;;5034903;28;20397;-79
2022/10/23 02:59:45;;;;;;;7.30;4.90;;;9.50;99.90;;;;;;5034462;28;20041;-79
2022/10/23 03:02:23;;;;;;;5.97;4.32;;;9.50;99.90;;;;;;5051228;28;20036;-79
2022/10/23 03:04:51;;;;;;;8.10;5.13;;;9.50;99.90;;;;;;5034808;28;20440;-79
2022/10/23 03:07:18;;;;;;;6.20;5.45;;;9.50;99.90;;;;;;5050999;28;20059;-79
2022/10/23 03:09:43;;;;;;;9.55;7.47;;;9.40;99.90;;;;;;5050717;28;20047;-79
2022/10/23 03:12:09;;;;;;;9.38;7.40;;;9.50;99.90;;;;;;5051115;28;20037;-79
2022/10/23 03:14:35;;;;;;;9.85;7.20;;;9.50;99.90;;;;;;5049221;28;20033;-79
2022/10/23 03:17:01;;;;;;;11.52;8.05;;;9.50;99.90;;;;;;5045601;28;20069;-79
2022/10/23 03:19:26;;;;;;;8.77;7.18;;;9.50;99.90;;;;;;5050773;28;20041;-79
2022/10/23 03:21:52;;;;;;;11.77;7.78;;;9.50;99.90;;;;;;5050532;28;20037;-79
2022/10/23 03:24:17;;;;;;;10.05;7.93;;;9.50;99.90;;;;;;5033855;28;20039;-79
2022/10/23 03:26:43;;;;;;;9.40;7.57;;;9.50;99.90;;;;;;5050624;28;20043;-79
2022/10/23 03:29:08;;;;;;;12.82;9.05;;;9.50;99.90;;;;;;5050589;28;20033;-79
2022/10/23 03:31:34;;;;;;;11.75;8.40;;;9.50;99.90;;;;;;5050559;28;20076;-79
2022/10/23 03:33:59;;;;;;;13.38;9.20;;;9.50;99.90;;;;;;5033776;28;20037;-79
2022/10/23 03:36:25;;;;;;;16.27;10.15;;;9.50;99.90;;;;;;5050512;28;20040;-79
2022/10/23 03:38:50;;;;;;;13.13;9.05;;;9.60;99.90;;;;;;5050655;28;20083;-79
2022/10/23 03:41:16;;;;;;;15.73;9.52;;;9.60;99.90;;;;;;5033492;28;20033;-79
2022/10/23 03:43:42;;;;;;;11.50;8.85;;;9.60;99.90;;;;;;5033711;28;20040;-79
2022/10/23 03:46:11;;;;;;;16.67;9.30;;;9.60;99.90;;;;;;5050419;28;20426;-79
2022/10/23 03:48:37;;;;;;;10.15;8.48;;;9.60;99.90;;;;;;5050325;28;20521;-79
2022/10/23 03:51:04;;;;;;;11.10;8.73;;;9.60;99.90;;;;;;5049983;28;20599;-79
2022/10/23 03:53:29;;;;;;;12.50;8.68;;;9.60;99.90;;;;;;5050078;28;20036;-79
2022/10/23 03:55:55;;;;;;;12.60;9.38;;;9.60;99.90;;;;;;5050140;28;20045;-79
2022/10/23 03:58:21;;;;;;;14.65;8.98;;;9.60;99.90;;;;;;5050035;28;20040;-79
2022/10/23 04:00:46;;;;;;;10.95;8.05;;;9.60;99.90;;;;;;5050021;28;20048;-79
2022/10/23 04:03:12;;;;;;;14.10;9.65;;;9.60;99.90;;;;;;5050010;28;20407;-79
2022/10/23 04:05:38;;;;;;;13.00;10.07;;;9.60;99.90;;;;;;5050352;28;20482;-79
2022/10/23 04:08:03;;;;;;;14.82;9.60;;;9.60;99.90;;;;;;5037604;28;20035;-79
2022/10/23 04:10:29;;;;;;;14.75;9.73;;;9.60;99.90;;;;;;5054089;28;20554;-79
2022/10/23 04:12:54;;;;;;;11.65;9.00;;;9.60;99.90;;;;;;5053801;28;20410;-79
2022/10/23 04:15:20;;;;;;;10.45;7.82;;;9.60;99.90;;;;;;5053810;28;20090;-79
2022/10/23 04:17:45;;;;;;;23.38;8.75;;;9.50;99.90;;;;;;5053775;28;20044;-79
2022/10/23 04:20:11;;;;;;;9.40;7.25;;;9.60;99.90;;;;;;5053917;28;20582;-79
2022/10/23 04:22:36;;;;;;;11.90;8.13;;;9.50;99.90;;;;;;5053309;28;20091;-79
2022/10/23 04:25:02;;;;;;;12.77;9.23;;;9.50;99.90;;;;;;5054299;28;20457;-79
2022/10/23 04:27:28;;;;;;;12.18;8.77;;;9.50;99.90;;;;;;5053979;28;20063;-79
2022/10/23 04:29:53;;;;;;;15.00;9.50;;;9.50;99.90;;;;;;5053889;28;20048;-79
2022/10/23 04:32:19;;;;;;;13.95;9.07;;;9.50;99.90;;;;;;5053695;28;20041;-79
2022/10/23 04:34:44;;;;;;;13.10;8.80;;;9.50;99.90;;;;;;5053720;28;20037;-79
2022/10/23 04:37:10;;;;;;;12.50;9.13;;;9.50;99.90;;;;;;5054035;28;20673;-80
2022/10/23 04:39:35;;;;;;;19.00;10.15;;;9.50;99.90;;;;;;5053709;28;20037;-79
2022/10/23 04:42:01;;;;;;;12.35;8.60;;;9.50;99.90;;;;;;5053417;28;20116;-79
2022/10/23 04:44:26;;;;;;;14.18;9.90;;;9.50;99.90;;;;;;5053276;28;20029;-79
2022/10/23 04:46:52;;;;;;;14.38;9.82;;;9.50;99.90;;;;;;5053414;28;20502;-78
2022/10/23 04:49:17;;;;;;;15.55;9.90;;;9.50;99.90;;;;;;5053296;28;20132;-79
2022/10/23 04:51:43;;;;;;;14.80;9.38;;;9.50;99.90;;;;;;5053111;28;20041;-79
2022/10/23 04:54:08;;;;;;;13.88;9.73;;;9.60;99.90;;;;;;5053383;28;20453;-79
2022/10/23 04:56:34;;;;;;;14.98;10.82;;;9.50;99.90;;;;;;5053090;28;20045;-78
2022/10/23 04:59:00;;;;;;;13.48;9.93;;;9.60;99.90;;;;;;5053089;28;20040;-79
2022/10/23 05:01:26;;;;;;;19.80;11.68;;;9.60;99.90;;;;;;5053143;28;20064;-79
2022/10/23 05:03:52;;;;;;;17.58;11.18;;;9.60;99.90;;;;;;5053107;28;20033;-79
2022/10/23 05:06:19;;;;;;;17.17;11.77;;;9.60;99.90;;;;;;5053381;28;20044;-79
2022/10/23 05:08:44;;;;;;;17.60;12.00;;;9.70;99.90;;;;;;5053013;28;20503;-79
2022/10/23 05:11:10;;;;;;;15.30;11.63;;;9.70;99.90;;;;;;5053508;28;20037;-78
2022/10/23 05:13:36;;;;;;;20.75;13.15;;;9.70;99.90;;;;;;5038980;28;20049;-79
2022/10/23 05:16:01;;;;;;;19.42;12.05;;;9.70;99.90;;;;;;5052109;28;20430;-79
2022/10/23 05:18:42;;;;;;;19.85;12.05;;;9.70;99.90;;;;;;5051512;28;20037;-79
2022/10/23 05:21:13;;;;;;;19.02;12.85;;;9.70;99.90;;;;;;5052749;28;20045;-79
2022/10/23 05:23:41;;;;;;;22.58;12.93;;;9.70;99.90;;;;;;5052868;28;20094;-79
2022/10/23 05:26:06;;;;;;;18.48;13.27;;;9.70;99.90;;;;;;5052761;28;20040;-79
2022/10/23 05:28:32;;;;;;;21.25;14.20;;;9.70;99.90;;;;;;5052958;28;20391;-79
2022/10/23 05:31:01;;;;;;;19.83;13.30;;;9.70;99.90;;;;;;5052233;28;20043;-79
2022/10/23 05:33:28;;;;;;;20.10;14.50;;;9.70;99.90;;;;;;5052635;28;20068;-79
2022/10/23 05:35:55;;;;;;;20.98;14.75;;;9.70;99.90;;;;;;5052848;28;20529;-79
2022/10/23 05:38:21;;;;;;;19.77;13.48;;;9.70;99.90;;;;;;5043672;28;20045;-79
2022/10/23 05:40:46;;;;;;;22.48;13.63;;;9.70;99.90;;;;;;5030403;28;20449;-79
2022/10/23 05:43:12;;;;;;;21.08;13.73;;;9.70;99.90;;;;;;5052180;28;20041;-79
2022/10/23 05:45:37;;;;;;;21.30;14.05;;;9.80;99.90;;;;;;5052380;28;20461;-80
2022/10/23 05:48:03;;;;;;;21.27;13.85;;;9.70;99.90;;;;;;5035950;28;20167;-79
2022/10/23 05:50:28;;;;;;;21.75;14.27;;;9.70;99.90;;;;;;5052353;28;20045;-79
2022/10/23 05:52:54;;;;;;;19.65;13.80;;;9.70;99.90;;;;;;5051802;28;20041;-80
2022/10/23 05:55:19;;;;;;;23.38;13.90;;;9.70;99.90;;;;;;5052857;28;20051;-79
2022/10/23 05:57:45;;;;;;;23.55;14.52;;;9.70;99.90;;;;;;5052723;28;20051;-79
2022/10/23 06:00:11;;;;;;;23.08;14.45;;;9.70;99.90;;;;;;5052248;28;20087;-79
2022/10/23 06:02:37;;;;;;;26.27;15.30;;;9.70;99.90;;;;;;5052467;28;20082;-80
2022/10/23 06:05:02;;;;;;;23.13;14.07;;;9.70;99.90;;;;;;5035184;28;20516;-80
2022/10/23 06:07:29;;;;;;;21.67;14.10;;;9.70;99.90;;;;;;5052043;28;20059;-79
2022/10/23 06:09:54;;;;;;;20.13;13.77;;;9.70;99.90;;;;;;5035364;28;20426;-79
2022/10/23 06:12:21;;;;;;;21.83;14.05;;;9.70;99.90;;;;;;5051793;28;20041;-79
2022/10/23 06:14:47;;;;;;;20.13;14.18;;;9.70;99.90;;;;;;5051579;28;20048;-79
2022/10/23 06:17:12;;;;;;;23.30;14.65;;;9.70;99.90;;;;;;5051437;28;20051;-79
2022/10/23 06:19:38;;;;;;;21.05;14.57;;;9.70;99.90;;;;;;5051367;28;20465;-78
2022/10/23 06:22:04;;;;;;;22.55;15.38;;;9.70;99.90;;;;;;5051106;28;20076;-80
2022/10/23 06:24:30;;;;;;;18.95;13.68;;;9.70;99.90;;;;;;5051666;28;20033;-79
2022/10/23 06:26:55;;;;;;;23.50;14.95;;;9.70;99.90;;;;;;5051332;28;20506;-79
2022/10/23 06:29:21;;;;;;;22.48;14.38;;;9.70;99.90;;;;;;5051064;28;20033;-79
2022/10/23 06:31:46;;;;;;;22.33;14.93;;;9.70;99.90;;;;;;5051111;28;20043;-79
2022/10/23 06:34:12;;;;;;;20.95;13.73;;;9.70;99.90;;;;;;5034558;28;20045;-79
2022/10/23 06:36:38;;;;;;;20.83;13.85;;;9.80;99.90;;;;;;5051501;28;20463;-79
2022/10/23 06:39:04;;;;;;;19.33;14.07;;;9.80;99.90;;;;;;5051026;28;20515;-79
2022/10/23 06:41:29;;;;;;;22.88;14.05;;;9.80;99.90;;;;;;5050977;28;20082;-79
2022/10/23 06:43:55;;;;;;;22.10;14.02;;;9.70;99.90;;;;;;5051365;28;20037;-79
2022/10/23 06:46:21;;;;;;;22.38;13.25;;;9.80;99.90;;;;;;5051364;28;20028;-79
2022/10/23 06:48:46;;;;;;;23.52;14.13;;;9.80;99.90;;;;;;5024354;28;20072;-79
2022/10/23 06:51:14;;;;;;;19.75;13.70;;;9.80;99.90;;;;;;5047148;28;20037;-80
2022/10/23 06:53:40;;;;;;;23.50;14.45;;;9.80;99.90;;;;;;5051139;28;20560;-78
2022/10/23 06:56:07;;;;;;;23.95;14.63;;;9.80;99.90;;;;;;5050632;28;20119;-79
2022/10/23 06:58:34;;;;;;;20.30;13.77;;;9.80;99.90;;;;;;5050915;28;20036;-79
2022/10/23 07:01:01;;;;;;;21.25;15.13;;;9.90;99.90;;;;;;5051104;28;20041;-81
2022/10/23 07:03:27;;;;;;;20.00;14.13;;;9.90;99.90;;;;;;5051772;28;20044;-79
2022/10/23 07:05:52;;;;;;;23.42;14.80;;;10.00;99.90;;;;;;5051412;28;20040;-79
2022/10/23 07:08:18;;;;;;;22.13;14.45;;;10.00;99.90;;;;;;5051626;28;20403;-80
2022/10/23 07:10:44;;;;;;;22.92;13.75;;;10.00;99.90;;;;;;5051297;28;20581;-80
2022/10/23 07:13:10;;;;;;;18.58;13.93;;;10.10;99.90;;;;;;5051455;28;20502;-80
2022/10/23 07:15:37;;;;;;;22.98;14.85;;;10.10;99.90;;;;;;5051227;28;20037;-79
2022/10/23 07:18:03;;;;;;;20.65;14.10;;;10.10;99.90;;;;;;5044175;28;20123;-80
2022/10/23 07:20:28;;;;;;;22.88;14.18;;;10.10;99.90;;;;;;5051052;28;20414;-79
2022/10/23 07:22:55;;;;;;;22.40;14.80;;;10.20;99.90;;;;;;5050864;28;20055;-78
2022/10/23 07:25:25;;;;;;;23.40;15.27;;;10.20;99.90;;;;;;5051128;28;20029;-78
2022/10/23 07:27:51;;;;;;;24.20;14.60;;;10.20;99.90;;;;;;5034724;28;20089;-80
2022/10/23 07:30:17;;;;;;;25.45;15.18;;;10.30;99.90;;;;;;5050983;28;20036;-80
2022/10/23 07:32:43;;;;;;;22.75;14.32;;;10.30;99.90;;;;;;5050943;28;20044;-80
2022/10/23 07:35:10;;;;;;;22.63;15.07;;;10.30;99.90;;;;;;5050966;28;20049;-79
2022/10/23 07:37:36;;;;;;;24.30;14.93;;;10.40;99.90;;;;;;5034091;28;20055;-79
2022/10/23 07:40:02;;;;;;;23.67;15.20;;;10.40;99.90;;;;;;5050808;28;20116;-79
2022/10/23 07:42:28;;;;;;;21.48;14.57;;;10.40;99.90;;;;;;5053472;28;20521;-79
2022/10/23 07:44:53;;;;;;;22.33;15.20;;;10.50;99.90;;;;;;5055013;28;20115;-79
2022/10/23 07:47:19;;;;;;;24.52;14.50;;;10.50;99.90;;;;;;5055121;28;20044;-79
2022/10/23 07:49:46;;;;;;;28.98;14.88;;;10.50;99.90;;;;;;5054341;28;20419;-79
2022/10/23 07:52:12;;;;;;;22.85;14.45;;;10.60;99.90;;;;;;5054602;28;20036;-79
2022/10/23 07:54:37;;;;;;;23.52;14.43;;;10.60;99.90;;;;;;5054371;28;20124;-79
2022/10/23 07:57:03;;;;;;;24.85;14.50;;;10.60;99.90;;;;;;5054367;28;20464;-79
2022/10/23 07:59:28;;;;;;;22.58;14.85;;;10.70;99.90;;;;;;5054454;28;20090;-79
2022/10/23 08:01:55;;;;;;;27.52;15.07;;;10.70;99.90;;;;;;5054194;28;20079;-79
2022/10/23 08:04:21;;;;;;;23.38;14.70;;;10.70;99.90;;;;;;5054461;28;20075;-79
2022/10/23 08:06:47;;;;;;;26.35;15.48;;;10.80;99.90;;;;;;5054274;28;20071;-79
2022/10/23 08:09:13;;;;;;;25.42;15.48;;;10.90;99.90;;;;;;5038179;28;20049;-80
2022/10/23 08:11:39;;;;;;;24.48;15.23;;;10.90;99.90;;;;;;5037636;28;20045;-79
2022/10/23 08:14:05;;;;;;;24.95;15.05;;;10.90;99.90;;;;;;5053855;28;20410;-78
2022/10/23 08:16:33;;;;;;;30.45;16.63;;;11.00;99.90;;;;;;5054138;28;20113;-79
2022/10/23 08:18:59;;;;;;;27.52;15.55;;;11.00;99.90;;;;;;5037709;28;20045;-79
2022/10/23 08:21:25;;;;;;;21.33;14.52;;;11.10;99.90;;;;;;5037567;28;20094;-79
2022/10/23 08:23:53;;;;;;;22.88;14.90;;;11.10;99.90;;;;;;5054155;28;20072;-79
2022/10/23 08:26:19;;;;;;;26.63;15.15;;;11.20;99.90;;;;;;5054007;28;20120;-79
2022/10/23 08:28:45;;;;;;;23.85;14.35;;;11.20;99.90;;;;;;5054581;28;20383;-80
2022/10/23 08:31:13;;;;;;;23.67;15.15;;;11.30;99.90;;;;;;5053645;28;20040;-79
2022/10/23 08:33:39;;;;;;;21.50;14.93;;;11.30;99.90;;;;;;5054069;28;20040;-79
2022/10/23 08:36:13;;;;;;;25.98;14.82;;;11.40;99.90;;;;;;5054107;28;20132;-79
2022/10/23 08:38:39;;;;;;;20.38;14.50;;;11.40;99.90;;;;;;5054082;28;20040;-80
2022/10/23 08:41:11;;;;;;;21.65;13.93;;;11.50;99.90;;;;;;5053945;28;20075;-79
2022/10/23 08:43:41;;;;;;;19.50;14.07;;;11.60;99.90;;;;;;5054027;28;20048;-79
2022/10/23 08:46:13;;;;;;;20.10;13.70;;;11.60;99.90;;;;;;5037169;28;20049;-79
2022/10/23 08:48:41;;;;;;;21.25;13.32;;;11.70;99.90;;;;;;5053891;28;20033;-80
2022/10/23 08:51:36;;;;;;;20.48;13.68;;;11.70;99.90;;;;;;5054332;28;20064;-79
2022/10/23 08:54:18;;;;;;;21.85;12.93;;;11.80;99.90;;;;;;5054238;28;20045;-79
2022/10/23 08:56:50;;;;;;;17.95;12.15;;;11.90;99.90;;;;;;5037517;28;20067;-79
2022/10/23 08:59:27;;;;;;;16.60;12.18;;;11.90;99.90;;;;;;5054744;28;20102;-79
2022/10/23 09:02:13;;;;;;;19.35;12.70;;;12.00;99.90;;;;;;5053994;28;20064;-79
2022/10/23 09:04:40;;;;;;;20.20;12.75;;;12.00;99.90;;;;;;5053383;28;20044;-79
2022/10/23 09:07:43;;;;;;;19.95;12.48;;;12.10;99.90;;;;;;5053150;28;20071;-79
2022/10/23 09:10:36;;;;;;;17.77;12.73;;;12.10;99.90;;;;;;5053557;28;20043;-79
2022/10/23 09:13:29;;;;;;;18.65;12.60;;;12.20;99.90;;;;;;5053270;28;20090;-80
2022/10/23 09:16:27;;;;;;;19.52;11.80;;;12.30;99.90;;;;;;5053351;28;20076;-79
2022/10/23 09:18:54;;;;;;;16.50;11.55;;;12.40;99.90;;;;;;5051661;28;20067;-79
2022/10/23 09:21:25;;;;;;;21.23;11.65;;;12.40;99.90;;;;;;5053974;28;20098;-79
2022/10/23 09:23:51;;;;;;;16.90;11.48;;;12.50;99.90;;;;;;5036782;28;20441;-78
2022/10/23 09:26:17;;;;;;;22.05;11.48;;;12.60;99.90;;;;;;5053023;28;20084;-79
2022/10/23 09:28:49;;;;;;;18.48;11.45;;;12.70;99.90;;;;;;5053371;28;20095;-79
2022/10/23 09:31:17;;;;;;;23.02;11.43;;;12.70;99.90;;;;;;5053019;28;20657;-79
2022/10/23 09:33:54;;;;;;;17.83;10.63;;;12.80;99.90;;;;;;5053284;28;20041;-79
2022/10/23 09:36:23;;;;;;;16.42;11.48;;;12.90;99.90;;;;;;5053501;28;20037;-79
2022/10/23 09:38:50;;;;;;;17.40;10.60;;;13.00;99.90;;;;;;5052863;28;20033;-78
2022/10/23 09:41:48;;;;;;;18.38;10.30;;;13.10;99.90;;;;;;5053696;28;20045;-81
2022/10/23 09:44:27;;;;;;;18.98;10.23;;;13.20;99.90;;;;;;5012312;28;20410;-78
2022/10/23 09:46:58;;;;;;;20.88;11.00;;;13.30;99.90;;;;;;5053557;28;20029;-80
2022/10/23 09:49:25;;;;;;;14.82;9.68;;;13.40;99.90;;;;;;5036163;28;20052;-80
2022/10/23 09:52:09;;;;;;;18.70;9.43;;;13.40;99.90;;;;;;5054826;28;20079;-78
2022/10/23 09:54:56;;;;;;;14.98;9.43;;;13.50;99.90;;;;;;5053012;28;20049;-79
2022/10/23 09:57:23;;;;;;;14.38;9.45;;;13.50;99.90;;;;;;5053217;28;20136;-80
2022/10/23 09:59:54;;;;;;;13.32;8.95;;;13.60;99.90;;;;;;5052655;28;20124;-81
2022/10/23 10:02:41;;;;;;;14.82;9.05;;;13.60;99.90;;;;;;5052593;28;20061;-79
2022/10/23 10:05:30;;;;;;;13.23;8.88;;;13.60;99.90;;;;;;5051929;28;20033;-79
2022/10/23 10:08:04;;;;;;;14.75;8.55;;;13.70;99.90;;;;;;5053574;28;20040;-78
2022/10/23 10:10:36;;;;;;;14.88;9.23;;;13.80;99.90;;;;;;5052746;28;20048;-80
2022/10/23 10:13:30;;;;;;;15.30;8.45;;;13.80;99.90;;;;;;5052752;28;20069;-79
2022/10/23 10:16:03;;;;;;;11.73;8.15;;;13.80;99.90;;;;;;5022225;28;20052;-79
2022/10/23 10:18:49;;;;;;;12.95;8.48;;;13.90;99.90;;;;;;5052661;28;20051;-80
2022/10/23 10:21:27;;;;;;;16.95;8.52;;;14.00;99.90;;;;;;5053039;28;20041;-80
2022/10/23 10:24:01;;;;;;;17.40;9.18;;;14.00;99.90;;;;;;5054165;28;20040;-81
2022/10/23 10:26:33;;;;;;;12.55;8.20;;;14.10;99.90;;;;;;5052808;28;20060;-80
2022/10/23 10:29:05;;;;;;;18.83;8.00;;;14.10;99.90;;;;;;5052321;28;20135;-80
2022/10/23 10:31:41;;;;;;;12.15;7.88;;;14.20;99.90;;;;;;5035966;28;20045;-80
2022/10/23 10:34:24;;;;;;;12.35;7.53;;;14.30;99.90;;;;;;5052406;28;20033;-80
2022/10/23 10:36:54;;;;;;;12.23;7.55;;;14.30;99.90;;;;;;5052717;28;20043;-81
2022/10/23 10:39:38;;;;;;;12.10;6.75;;;14.40;99.90;;;;;;5052257;28;20052;-81
2022/10/23 10:42:13;;;;;;;10.98;6.40;;;14.50;99.90;;;;;;5035598;28;20044;-81
2022/10/23 10:45:04;;;;;;;10.52;6.47;;;14.60;99.90;;;;;;5047704;28;20041;-78
2022/10/23 10:47:44;;;;;;;12.45;6.18;;;14.60;99.90;;;;;;5030449;28;20086;-78
2022/10/23 10:50:37;;;;;;;11.48;5.65;;;14.70;99.90;;;;;;5047573;28;20045;-80
2022/10/23 10:53:09;;;;;;;15.25;5.78;;;14.70;99.90;;;;;;5051233;28;20040;-79
2022/10/23 10:55:40;;;;;;;12.55;5.93;;;14.80;99.90;;;;;;5050150;28;20135;-80
2022/10/23 10:58:24;;;;;;;8.63;5.40;;;14.80;99.90;;;;;;5048528;28;20041;-81
2022/10/23 11:00:55;;;;;;;10.20;5.10;;;14.90;99.90;;;;;;5050411;28;20040;-80
2022/10/23 11:03:33;;;;;;;10.88;4.97;;;15.00;99.90;;;;;;5040602;28;20047;-81
2022/10/23 11:06:01;;;;;;;7.28;4.45;;;15.00;99.90;;;;;;5025284;28;20398;-81
2022/10/23 11:08:38;;;;;;;11.70;4.57;;;15.00;99.90;;;;;;5042833;28;20072;-80
2022/10/23 11:11:10;;;;;;;8.88;4.78;;;15.10;99.90;;;;;;5031218;28;20510;-80
2022/10/23 11:13:39;;;;;;;16.70;4.93;;;15.10;99.90;;;;;;5050977;28;20056;-80
2022/10/23 11:16:22;;;;;;;9.52;5.25;;;15.20;99.90;;;;;;5051150;28;20040;-81
2022/10/23 11:19:21;;;;;;;10.52;4.93;;;15.20;99.90;;;;;;5053294;28;20077;-80
2022/10/23 11:22:03;;;;;;;9.18;4.60;;;15.20;99.90;;;;;;5048005;28;20037;-80
2022/10/23 11:24:44;;;;;;;7.03;4.45;;;15.30;99.90;;;;;;5043964;28;20402;-80
2022/10/23 11:27:21;;;;;;;10.52;4.28;;;15.30;99.90;;;;;;5051824;28;20486;-80
2022/10/23 11:30:14;;;;;;;9.18;4.28;;;15.30;99.90;;;;;;5047583;28;20072;-80
2022/10/23 11:32:58;;;;;;;10.40;3.87;;;15.30;99.90;;;;;;5047731;28;20041;-81
2022/10/23 11:36:04;;;;;;;9.45;3.70;;;15.30;99.90;;;;;;5048931;28;20068;-80
2022/10/23 11:38:35;;;;;;;10.23;4.03;;;15.30;99.90;;;;;;5050554;28;20463;-80
2022/10/23 11:41:04;;;;;;;6.40;3.88;;;15.30;99.90;;;;;;5030552;28;20459;-79
2022/10/23 11:43:55;;;;;;;9.85;4.13;;;15.30;99.90;;;;;;5049151;28;20052;-80
2022/10/23 11:46:27;;;;;;;8.05;3.72;;;15.30;99.90;;;;;;5046695;28;20056;-79
2022/10/23 11:48:54;;;;;;;6.60;4.05;;;15.30;99.90;;;;;;5049742;28;20063;-82
2022/10/23 11:51:32;;;;;;;9.98;4.03;;;15.30;99.90;;;;;;5050898;28;20048;-80
2022/10/23 11:54:10;;;;;;;6.47;4.20;;;15.30;99.90;;;;;;5034770;28;20059;-80
2022/10/23 11:56:37;;;;;;;8.95;4.63;;;15.20;99.90;;;;;;5049144;28;20448;-80
2022/10/23 11:59:28;;;;;;;6.35;4.18;;;15.20;99.90;;;;;;5046047;28;20059;-80
2022/10/23 12:01:56;;;;;;;9.52;4.57;;;15.20;99.90;;;;;;5038434;28;20725;-80
2022/10/23 12:04:30;;;;;;;9.73;4.88;;;15.20;99.90;;;;;;5045081;28;20029;-80
2022/10/23 12:06:59;;;;;;;10.15;4.72;;;15.20;99.90;;;;;;5049024;28;20132;-80
2022/10/23 12:09:35;;;;;;;9.65;5.90;;;15.20;99.90;;;;;;5047142;28;20410;-80
2022/10/23 12:12:06;;;;;;;8.70;5.10;;;15.20;99.90;;;;;;5046997;28;20041;-80
2022/10/23 12:14:38;;;;;;;11.02;5.00;;;15.20;99.90;;;;;;5047080;28;20048;-81
2022/10/23 12:17:23;;;;;;;7.22;4.35;;;15.10;99.90;;;;;;5049559;28;20410;-80
2022/10/23 12:19:54;;;;;;;10.95;4.93;;;15.20;99.90;;;;;;5032595;28;20056;-82
2022/10/23 12:22:23;;;;;;;13.32;4.55;;;15.20;99.90;;;;;;5050925;28;20051;-80
2022/10/23 12:25:11;;;;;;;11.35;4.68;;;15.20;99.90;;;;;;5051229;28;20055;-84
2022/10/23 12:27:44;;;;;;;10.35;4.72;;;15.20;99.90;;;;;;5053385;28;20650;-82
2022/10/23 12:30:23;;;;;;;9.63;4.43;;;15.30;99.90;;;;;;5054793;28;20048;-81
2022/10/23 12:33:27;;;;;;;9.52;4.35;;;15.30;99.90;;;;;;5052149;28;20537;-79
2022/10/23 12:36:11;;;;;;;7.50;4.73;;;15.30;99.90;;;;;;5032474;28;20084;-81
2022/10/23 12:38:46;;;;;;;;;;;15.40;99.90;;;;;;5055552;28;20120;-81
2022/10/23 12:41:15;;;;;;;9.98;4.43;;;15.40;99.90;;;;;;5053861;28;20319;-80
2022/10/23 12:43:44;;;;;;;11.35;4.50;;;15.40;99.90;;;;;;5055732;28;20112;-79
2022/10/23 12:46:19;;;;;;;9.88;3.92;;;15.50;99.90;;;;;;5053557;28;20029;-81
2022/10/23 12:48:53;;;;;;;9.32;4.22;;;15.50;99.90;;;;;;5053871;28;20037;-80
2022/10/23 12:51:30;;;;;;;13.82;6.50;;;15.50;99.90;;;;;;5054287;28;20067;-80
2022/10/23 12:53:56;;;;;;;13.70;8.45;;;15.50;99.90;;;;;;5038064;28;20048;-81
2022/10/23 12:56:24;;;;;;;15.65;8.07;;;15.50;99.90;;;;;;5055055;28;20037;-80
2022/10/23 12:58:55;;;;;;;15.25;7.63;;;15.50;99.90;;;;;;5036403;28;20052;-80